Murmansk, Russia
Current Conditions -  °F | °C
As of 3:30 AM on Sunday 21 Dec 2014 (Local Time) from ULMM Reporting Station
Snow Showers Snow Showers  
Wind Chill: 28°   Ceiling: 1600
Heat Index: 28°   Visibility: 1.3mi
Dew Point: 25°   Wind: 2mph
Humidity: 86%   Direction: NA
Pressure: 29.09"   Gusts: NA
Location:  68.96°N, 33.08°E
Report Text: ULMM 210030Z VRB01MPS 2200 -SHSN BKN016CB M02/M04 Q0985 NOSIG RMK QFE732 31590242
Loading
Personal Weather Stations






























Interactive Weather Map New forecast layout! Learn more

10-Day Weather Forecast

Advertisements
Track Severe Weather on mobile